createdAt,value
2022-07-31T00:00:17.909Z,15.88
2022-07-31T00:02:44.690Z,15.79
2022-07-31T00:05:11.533Z,15.75
2022-07-31T00:07:38.140Z,15.67
2022-07-31T00:10:06.118Z,15.65
2022-07-31T00:12:34.767Z,15.55
2022-07-31T00:15:06.923Z,15.59
2022-07-31T00:17:34.616Z,15.50
2022-07-31T00:20:01.845Z,15.47
2022-07-31T00:22:28.433Z,15.55
2022-07-31T00:24:55.016Z,15.45
2022-07-31T00:27:21.706Z,15.37
2022-07-31T00:29:48.205Z,15.30
2022-07-31T00:32:15.034Z,15.28
2022-07-31T00:34:42.509Z,15.22
2022-07-31T00:37:10.536Z,15.11
2022-07-31T00:39:37.120Z,15.11
2022-07-31T00:42:03.974Z,15.11
2022-07-31T00:44:30.461Z,15.07
2022-07-31T00:46:58.048Z,15.04
2022-07-31T00:49:37.653Z,14.98
2022-07-31T00:52:05.587Z,14.96
2022-07-31T00:54:32.526Z,14.93
2022-07-31T00:56:59.063Z,14.89
2022-07-31T00:59:28.161Z,14.83
2022-07-31T01:01:55.853Z,14.70
2022-07-31T01:04:22.641Z,14.60
2022-07-31T01:06:51.911Z,14.63
2022-07-31T01:09:18.596Z,14.64
2022-07-31T01:11:51.859Z,14.64
2022-07-31T01:14:22.109Z,14.61
2022-07-31T01:16:52.369Z,14.54
2022-07-31T01:19:42.060Z,14.50
2022-07-31T01:22:35.241Z,14.47
2022-07-31T01:25:28.825Z,14.45
2022-07-31T01:28:10.295Z,14.46
2022-07-31T01:30:52.987Z,14.52
2022-07-31T01:33:30.335Z,14.52
2022-07-31T01:36:07.927Z,14.48
2022-07-31T01:38:42.445Z,14.39
2022-07-31T01:41:23.519Z,14.53
2022-07-31T01:43:54.347Z,14.37
2022-07-31T01:46:22.981Z,14.22
2022-07-31T01:48:50.258Z,14.10
2022-07-31T01:51:18.661Z,14.11
2022-07-31T01:53:47.386Z,14.06
2022-07-31T01:56:17.310Z,14.02
2022-07-31T01:58:45.167Z,14.04
2022-07-31T02:01:13.895Z,14.01
2022-07-31T02:03:44.224Z,13.97
2022-07-31T02:06:18.031Z,13.95
2022-07-31T02:08:47.492Z,13.83
2022-07-31T02:11:19.053Z,13.69
2022-07-31T02:13:47.274Z,13.65
2022-07-31T02:16:16.754Z,13.58
2022-07-31T02:18:43.811Z,13.52
2022-07-31T02:21:10.558Z,13.43
2022-07-31T02:23:38.314Z,13.39
2022-07-31T02:26:07.084Z,13.43
2022-07-31T02:28:37.983Z,13.41
2022-07-31T02:31:08.133Z,13.25
2022-07-31T02:33:36.562Z,13.18
2022-07-31T02:36:04.463Z,13.29
2022-07-31T02:38:33.582Z,13.32
2022-07-31T02:41:04.874Z,13.23
2022-07-31T02:43:33.292Z,13.06
2022-07-31T02:46:00.573Z,13.12
2022-07-31T02:48:27.660Z,13.09
2022-07-31T02:50:54.681Z,13.26
2022-07-31T02:53:21.804Z,13.07
2022-07-31T02:55:50.560Z,12.96
2022-07-31T02:58:17.673Z,12.87
2022-07-31T03:00:44.341Z,12.78
2022-07-31T03:03:11.079Z,12.76
2022-07-31T03:05:44.933Z,12.80
2022-07-31T03:08:11.893Z,12.90
2022-07-31T03:10:38.694Z,12.85
2022-07-31T03:13:06.571Z,12.84
2022-07-31T03:15:34.025Z,12.97
2022-07-31T03:18:01.427Z,12.90
2022-07-31T03:20:35.113Z,12.83
2022-07-31T03:23:06.688Z,12.87
2022-07-31T03:25:33.429Z,12.75
2022-07-31T03:28:00.499Z,12.63
2022-07-31T03:30:27.053Z,12.61
2022-07-31T03:32:54.888Z,12.62
2022-07-31T03:35:22.363Z,12.60
2022-07-31T03:37:49.585Z,12.57
2022-07-31T03:40:16.451Z,12.72
2022-07-31T03:42:43.530Z,12.71
2022-07-31T03:45:12.276Z,12.63
2022-07-31T03:47:40.138Z,12.62
2022-07-31T03:50:08.864Z,12.69
2022-07-31T03:52:36.717Z,12.73
2022-07-31T03:55:04.828Z,12.76
2022-07-31T03:57:43.988Z,12.74
2022-07-31T04:00:16.985Z,12.76
2022-07-31T04:02:47.384Z,12.77
2022-07-31T04:05:14.279Z,12.94
2022-07-31T04:07:40.811Z,13.10
2022-07-31T04:10:07.954Z,13.24
2022-07-31T04:12:42.664Z,13.36
2022-07-31T04:15:12.380Z,13.56
2022-07-31T04:17:38.988Z,13.60
2022-07-31T04:20:06.689Z,13.74
2022-07-31T04:22:33.977Z,14.04
2022-07-31T04:25:02.012Z,14.74
2022-07-31T04:27:28.548Z,15.13
2022-07-31T04:29:55.711Z,16.01
2022-07-31T04:32:22.376Z,16.53
2022-07-31T04:34:51.485Z,17.04
2022-07-31T04:37:18.043Z,17.51
2022-07-31T04:39:44.637Z,18.31
2022-07-31T04:42:13.856Z,18.53
2022-07-31T04:44:40.837Z,19.10
2022-07-31T04:47:07.649Z,19.43
2022-07-31T04:49:34.417Z,20.52
2022-07-31T04:52:01.407Z,21.63
2022-07-31T04:54:28.607Z,21.40
2022-07-31T04:56:59.037Z,21.78
2022-07-31T05:00:00.062Z,22.79
2022-07-31T05:02:12.438Z,23.24
2022-07-31T05:04:38.988Z,23.46
2022-07-31T05:07:05.524Z,24.51
2022-07-31T05:09:34.212Z,23.52
2022-07-31T05:12:05.107Z,21.85
2022-07-31T05:14:31.931Z,20.47
2022-07-31T05:16:58.514Z,20.31
2022-07-31T05:19:32.088Z,20.86
2022-07-31T05:22:02.298Z,20.39
2022-07-31T05:24:32.668Z,20.02
2022-07-31T05:27:03.309Z,19.42
2022-07-31T05:29:31.383Z,19.33
2022-07-31T05:31:59.402Z,19.73
2022-07-31T05:34:37.102Z,19.55
2022-07-31T05:37:06.540Z,19.76
2022-07-31T05:39:33.318Z,19.25
2022-07-31T05:42:04.429Z,19.54
2022-07-31T05:44:32.127Z,20.42
2022-07-31T05:49:26.874Z,22.21
2022-07-31T05:51:54.689Z,22.92
2022-07-31T05:54:23.320Z,22.44
2022-07-31T05:56:50.288Z,22.87
2022-07-31T05:59:16.842Z,23.98
2022-07-31T06:01:43.964Z,25.38
2022-07-31T06:04:10.791Z,27.75
2022-07-31T06:06:37.865Z,25.82
2022-07-31T06:09:05.158Z,25.57
2022-07-31T06:11:33.275Z,27.71
2022-07-31T06:14:07.185Z,27.37
2022-07-31T06:16:33.766Z,28.90
2022-07-31T06:19:00.905Z,26.67
2022-07-31T06:21:30.775Z,25.97
2022-07-31T06:24:00.818Z,24.32
2022-07-31T06:26:28.925Z,23.93
2022-07-31T06:28:56.183Z,23.48
2022-07-31T06:31:23.487Z,23.64
2022-07-31T06:33:51.505Z,23.30
2022-07-31T06:36:19.719Z,22.80
2022-07-31T06:38:46.536Z,22.71
2022-07-31T06:41:36.385Z,22.47
2022-07-31T06:44:04.942Z,22.93
2022-07-31T06:46:31.866Z,23.21
2022-07-31T06:48:58.486Z,23.28
2022-07-31T06:51:32.719Z,23.83
2022-07-31T06:54:05.895Z,23.38
2022-07-31T06:56:33.970Z,23.24
2022-07-31T06:59:01.026Z,23.03
2022-07-31T07:01:28.368Z,23.11
2022-07-31T07:03:57.548Z,23.41
2022-07-31T07:06:24.605Z,23.51
2022-07-31T07:08:51.950Z,24.21
2022-07-31T07:11:21.499Z,24.41
2022-07-31T07:13:48.096Z,24.71
2022-07-31T07:16:15.565Z,24.25
2022-07-31T07:18:43.144Z,24.36
2022-07-31T07:21:10.490Z,24.58
2022-07-31T07:23:38.347Z,24.92
2022-07-31T07:26:05.500Z,25.33
2022-07-31T07:28:32.391Z,25.59
2022-07-31T07:30:59.095Z,25.45
2022-07-31T07:33:39.560Z,25.60
2022-07-31T07:36:10.490Z,25.36
2022-07-31T07:38:48.407Z,24.99
2022-07-31T07:41:14.954Z,25.58
2022-07-31T07:43:45.144Z,25.24
2022-07-31T07:46:18.475Z,25.16
2022-07-31T07:48:45.099Z,25.84
2022-07-31T07:51:12.226Z,26.54
2022-07-31T07:53:39.210Z,26.17
2022-07-31T07:56:11.624Z,26.71
2022-07-31T07:58:38.231Z,27.13
2022-07-31T08:01:09.192Z,27.87
2022-07-31T08:03:49.172Z,28.61
2022-07-31T08:06:19.341Z,28.99
2022-07-31T08:08:47.821Z,28.08
2022-07-31T08:11:16.874Z,27.87
2022-07-31T08:13:49.665Z,27.10
2022-07-31T08:16:19.175Z,26.73
2022-07-31T08:18:45.921Z,27.25
2022-07-31T08:21:12.870Z,27.18
2022-07-31T08:23:39.426Z,26.93
2022-07-31T08:26:08.393Z,26.87
2022-07-31T08:28:36.152Z,28.09
2022-07-31T08:31:03.352Z,29.31
2022-07-31T08:33:30.255Z,28.91
2022-07-31T08:35:56.824Z,29.22
2022-07-31T08:38:23.518Z,27.99
2022-07-31T08:40:50.254Z,27.38
2022-07-31T08:43:59.953Z,27.15
2022-07-31T08:46:06.004Z,26.56
2022-07-31T08:48:33.333Z,26.48
2022-07-31T08:51:02.525Z,26.53
2022-07-31T08:53:32.977Z,26.85
2022-07-31T08:55:59.900Z,27.53
2022-07-31T08:58:26.449Z,27.59
2022-07-31T09:00:53.783Z,27.89
2022-07-31T09:03:20.593Z,28.38
2022-07-31T09:05:47.119Z,29.50
2022-07-31T09:08:15.133Z,30.00
2022-07-31T09:10:47.594Z,30.80
2022-07-31T09:13:18.134Z,29.24
2022-07-31T09:15:45.236Z,29.55
2022-07-31T09:18:21.994Z,29.39
2022-07-31T09:20:58.750Z,30.63
2022-07-31T09:23:27.809Z,32.27
2022-07-31T09:25:55.865Z,31.88
2022-07-31T09:28:32.986Z,33.29
2022-07-31T09:31:00.219Z,32.85
2022-07-31T09:33:28.272Z,32.45
2022-07-31T09:35:55.675Z,31.26
2022-07-31T09:38:29.021Z,31.65
2022-07-31T09:40:57.770Z,34.09
2022-07-31T09:43:31.876Z,36.46
2022-07-31T09:46:00.098Z,36.73
2022-07-31T09:48:28.554Z,37.49
2022-07-31T09:50:55.615Z,38.80
2022-07-31T09:53:22.702Z,36.77
2022-07-31T09:55:53.607Z,34.25
2022-07-31T09:58:21.138Z,32.60
2022-07-31T10:00:51.849Z,32.66
2022-07-31T10:03:19.598Z,32.75
2022-07-31T10:05:47.813Z,32.81
2022-07-31T10:08:15.034Z,32.19
2022-07-31T10:10:46.254Z,32.51
2022-07-31T10:13:15.664Z,33.06
2022-07-31T10:15:47.116Z,34.00
2022-07-31T10:18:17.305Z,34.19
2022-07-31T10:20:53.098Z,34.45
2022-07-31T10:23:27.220Z,33.81
2022-07-31T10:25:58.191Z,32.81
2022-07-31T10:28:25.400Z,32.63
2022-07-31T10:30:52.713Z,32.45
2022-07-31T10:33:42.616Z,32.36
2022-07-31T10:36:11.716Z,32.72
2022-07-31T10:39:06.897Z,32.35
2022-07-31T10:41:36.466Z,32.34
2022-07-31T10:44:10.813Z,33.83
2022-07-31T10:46:37.683Z,34.31
2022-07-31T10:49:08.749Z,34.45
2022-07-31T10:51:46.560Z,35.62
2022-07-31T10:54:14.289Z,36.83
2022-07-31T10:56:45.231Z,36.42
2022-07-31T10:59:12.172Z,36.28
2022-07-31T11:01:54.282Z,36.17
2022-07-31T11:04:32.221Z,36.50
2022-07-31T11:06:59.379Z,36.13
2022-07-31T11:09:28.897Z,35.69
2022-07-31T11:11:57.051Z,34.76
2022-07-31T11:14:38.174Z,35.22
2022-07-31T11:17:07.896Z,34.23
2022-07-31T11:19:42.726Z,33.33
2022-07-31T11:22:30.637Z,32.23
2022-07-31T11:25:00.687Z,30.73
2022-07-31T11:27:31.786Z,29.93
2022-07-31T11:30:12.422Z,29.86
2022-07-31T11:32:40.255Z,29.09
2022-07-31T11:35:07.572Z,29.10
2022-07-31T11:37:46.288Z,29.17
2022-07-31T11:40:22.071Z,29.13
2022-07-31T11:43:04.678Z,29.48
2022-07-31T11:45:53.011Z,30.84
2022-07-31T11:48:26.522Z,31.12
2022-07-31T11:50:54.566Z,30.34
2022-07-31T11:53:21.459Z,30.63
2022-07-31T11:55:53.161Z,31.18
2022-07-31T11:58:21.858Z,31.59
2022-07-31T12:00:49.253Z,32.34
2022-07-31T12:03:17.786Z,32.21
2022-07-31T12:05:48.608Z,31.57
2022-07-31T12:08:16.096Z,31.61
2022-07-31T12:10:43.506Z,31.48
2022-07-31T12:13:17.566Z,30.50
2022-07-31T12:16:04.970Z,30.08
2022-07-31T12:18:52.485Z,29.91
2022-07-31T12:21:20.228Z,29.66
2022-07-31T12:23:51.605Z,29.73
2022-07-31T12:26:22.982Z,31.63
2022-07-31T12:29:11.994Z,33.28
2022-07-31T12:31:47.590Z,31.94
2022-07-31T12:34:40.095Z,32.76
2022-07-31T12:37:11.443Z,33.39
2022-07-31T12:39:59.725Z,34.42
2022-07-31T12:42:30.874Z,35.11
2022-07-31T12:45:18.333Z,34.99
2022-07-31T12:47:51.195Z,33.17
2022-07-31T12:50:19.017Z,32.15
2022-07-31T12:52:45.561Z,31.67
2022-07-31T12:55:12.234Z,32.12
2022-07-31T12:57:44.647Z,31.87
2022-07-31T13:00:24.827Z,32.82
2022-07-31T13:02:53.038Z,32.74
2022-07-31T13:05:20.863Z,32.39
2022-07-31T13:07:47.911Z,33.48
2022-07-31T13:10:23.823Z,33.39
2022-07-31T13:12:52.155Z,32.76
2022-07-31T13:15:22.600Z,32.15
2022-07-31T13:17:50.519Z,32.52
2022-07-31T13:20:18.105Z,33.32
2022-07-31T13:22:44.696Z,34.25
2022-07-31T13:25:11.260Z,34.22
2022-07-31T13:27:38.000Z,34.05
2022-07-31T13:30:05.325Z,33.49
2022-07-31T13:32:31.994Z,32.89
2022-07-31T13:35:26.546Z,31.97
2022-07-31T13:37:46.926Z,31.62
2022-07-31T13:40:14.505Z,31.24
2022-07-31T13:42:41.001Z,31.59
2022-07-31T13:45:08.825Z,31.97
2022-07-31T13:47:50.491Z,31.55
2022-07-31T13:50:20.879Z,31.75
2022-07-31T13:52:47.291Z,31.15
2022-07-31T13:55:13.826Z,31.43
2022-07-31T13:57:40.352Z,30.98
2022-07-31T14:00:07.721Z,30.66
2022-07-31T14:02:34.581Z,30.38
2022-07-31T14:05:01.199Z,30.77
2022-07-31T14:07:45.049Z,30.15
2022-07-31T14:10:14.107Z,29.47
2022-07-31T14:12:43.827Z,29.47
2022-07-31T14:15:10.694Z,29.50
2022-07-31T14:17:37.257Z,29.49
2022-07-31T14:20:04.262Z,29.26
2022-07-31T14:22:32.683Z,28.88
2022-07-31T14:24:59.576Z,28.66
2022-07-31T14:27:26.126Z,28.33
2022-07-31T14:29:52.725Z,28.33
2022-07-31T14:32:21.763Z,28.17
2022-07-31T14:34:49.826Z,27.88
2022-07-31T14:37:16.680Z,27.59
2022-07-31T14:39:43.493Z,27.82
2022-07-31T14:42:10.500Z,28.04
2022-07-31T14:44:38.278Z,28.27
2022-07-31T14:47:05.123Z,28.59
2022-07-31T14:50:08.680Z,28.67
2022-07-31T14:52:18.509Z,29.03
2022-07-31T14:54:45.071Z,29.00
2022-07-31T14:57:11.769Z,29.07
2022-07-31T14:59:38.462Z,28.60
2022-07-31T15:02:05.594Z,28.42
2022-07-31T15:04:32.340Z,28.43
2022-07-31T15:07:19.065Z,28.62
2022-07-31T15:09:47.280Z,28.13
2022-07-31T15:12:16.866Z,28.43
2022-07-31T15:14:46.650Z,28.38
2022-07-31T15:17:13.176Z,28.08
2022-07-31T15:19:39.853Z,27.95
2022-07-31T15:22:10.643Z,28.03
2022-07-31T15:24:49.325Z,27.93
2022-07-31T15:27:18.130Z,28.03
2022-07-31T15:30:05.126Z,28.06
2022-07-31T15:32:31.420Z,28.12
2022-07-31T15:34:57.931Z,28.30
2022-07-31T15:37:24.906Z,28.35
2022-07-31T15:40:01.505Z,28.56
2022-07-31T15:42:34.567Z,28.47
2022-07-31T15:45:01.266Z,28.43
2022-07-31T15:47:27.853Z,28.38
2022-07-31T15:49:54.437Z,28.22
2022-07-31T15:52:21.045Z,28.21
2022-07-31T15:54:51.565Z,28.21
2022-07-31T15:57:20.165Z,28.30
2022-07-31T15:59:46.768Z,28.45
2022-07-31T16:02:13.356Z,28.45
2022-07-31T16:04:51.435Z,28.49
2022-07-31T16:08:31.293Z,28.12
2022-07-31T16:10:16.204Z,28.27
2022-07-31T16:12:47.471Z,28.27
2022-07-31T16:15:15.242Z,28.04
2022-07-31T16:17:43.098Z,27.73
2022-07-31T16:20:12.816Z,27.65
2022-07-31T16:22:41.338Z,27.31
2022-07-31T16:25:09.948Z,27.16
2022-07-31T16:27:37.467Z,26.81
2022-07-31T16:30:05.686Z,26.70
2022-07-31T16:32:32.660Z,26.68
2022-07-31T16:35:01.265Z,26.57
2022-07-31T16:37:51.234Z,26.58
2022-07-31T16:40:28.610Z,26.46
2022-07-31T16:43:49.626Z,26.42
2022-07-31T16:45:51.794Z,26.52
2022-07-31T16:48:18.459Z,26.47
2022-07-31T16:50:45.016Z,26.27
2022-07-31T16:54:12.762Z,26.14
2022-07-31T16:56:02.015Z,25.95
2022-07-31T16:58:29.162Z,25.78
2022-07-31T17:00:57.183Z,25.72
2022-07-31T17:04:01.461Z,25.62
2022-07-31T17:06:11.345Z,25.72
2022-07-31T17:08:38.284Z,25.82
2022-07-31T17:11:05.329Z,25.83
2022-07-31T17:13:32.487Z,25.78
2022-07-31T17:15:58.981Z,25.64
2022-07-31T17:18:26.176Z,25.61
2022-07-31T17:20:55.654Z,25.31
2022-07-31T17:23:43.364Z,25.23
2022-07-31T17:26:21.233Z,25.20
2022-07-31T17:28:51.264Z,25.25
2022-07-31T17:31:18.987Z,25.18
2022-07-31T17:33:59.823Z,25.21
2022-07-31T17:36:28.071Z,25.20
2022-07-31T17:38:54.662Z,25.18
2022-07-31T17:41:25.156Z,25.19
2022-07-31T17:43:55.575Z,25.19
2022-07-31T17:46:29.984Z,25.15
2022-07-31T17:49:04.076Z,25.09
2022-07-31T17:51:30.670Z,25.03
2022-07-31T17:53:59.650Z,24.96
2022-07-31T17:56:26.675Z,24.86
2022-07-31T17:58:53.915Z,24.77
2022-07-31T18:01:24.418Z,24.72
2022-07-31T18:03:53.725Z,24.65
2022-07-31T18:06:20.240Z,24.58
2022-07-31T18:08:47.385Z,24.51
2022-07-31T18:11:13.889Z,24.42
2022-07-31T18:13:48.522Z,24.39
2022-07-31T18:16:19.236Z,24.32
2022-07-31T18:18:46.191Z,24.29
2022-07-31T18:21:13.376Z,24.22
2022-07-31T18:23:43.687Z,24.15
2022-07-31T18:26:14.565Z,24.10
2022-07-31T18:28:41.414Z,23.98
2022-07-31T18:31:24.236Z,23.90
2022-07-31T18:33:54.490Z,23.80
2022-07-31T18:36:21.793Z,23.70
2022-07-31T18:38:48.760Z,23.60
2022-07-31T18:41:15.277Z,23.57
2022-07-31T18:43:44.441Z,23.51
2022-07-31T18:46:10.927Z,23.46
2022-07-31T18:48:37.575Z,23.43
2022-07-31T18:51:05.480Z,23.33
2022-07-31T18:53:33.319Z,23.26
2022-07-31T18:56:00.525Z,23.21
2022-07-31T18:58:27.131Z,23.16
2022-07-31T19:00:55.094Z,23.10
2022-07-31T19:03:22.202Z,23.00
2022-07-31T19:05:50.475Z,22.93
2022-07-31T19:08:17.371Z,22.87
2022-07-31T19:10:43.969Z,22.81
2022-07-31T19:13:18.956Z,22.61
2022-07-31T19:15:47.100Z,22.48
2022-07-31T19:21:00.420Z,22.29
2022-07-31T19:23:27.630Z,22.23
2022-07-31T19:26:03.696Z,22.12
2022-07-31T19:28:35.090Z,22.08
2022-07-31T19:31:01.987Z,22.00
2022-07-31T19:33:28.784Z,21.99
2022-07-31T19:36:01.497Z,21.96
2022-07-31T19:38:31.869Z,21.92
2022-07-31T19:40:59.606Z,21.92
2022-07-31T19:43:26.161Z,21.89
2022-07-31T19:45:59.797Z,21.83
2022-07-31T19:48:40.529Z,21.84
2022-07-31T19:51:07.294Z,21.81
2022-07-31T19:53:33.821Z,21.82
2022-07-31T19:56:05.207Z,21.77
2022-07-31T19:58:57.230Z,21.73
2022-07-31T20:01:24.093Z,21.66
2022-07-31T20:03:53.270Z,21.66
2022-07-31T20:06:21.013Z,21.63
2022-07-31T20:08:51.052Z,21.61
2022-07-31T20:11:18.189Z,21.56
2022-07-31T20:13:44.819Z,21.57
2022-07-31T20:16:11.464Z,21.45
2022-07-31T20:18:38.074Z,21.43
2022-07-31T20:21:08.004Z,21.43
2022-07-31T20:23:38.114Z,21.47
2022-07-31T20:26:10.837Z,21.40
2022-07-31T20:28:40.140Z,21.38
2022-07-31T20:31:08.269Z,21.38
2022-07-31T20:33:47.511Z,21.33
2022-07-31T20:36:25.659Z,21.34
2022-07-31T20:38:52.195Z,21.32
2022-07-31T20:41:18.813Z,21.31
2022-07-31T20:43:45.519Z,21.26
2022-07-31T20:46:12.104Z,21.25
2022-07-31T20:48:38.952Z,21.26
2022-07-31T20:51:06.920Z,21.23
2022-07-31T20:53:33.420Z,21.21
2022-07-31T20:55:59.997Z,21.17
2022-07-31T20:58:26.881Z,21.18
2022-07-31T21:00:53.898Z,21.15
2022-07-31T21:03:21.172Z,21.16
2022-07-31T21:05:48.041Z,21.15
2022-07-31T21:08:16.346Z,21.14
2022-07-31T21:10:43.270Z,21.13
2022-07-31T21:13:10.085Z,21.10
2022-07-31T21:15:42.579Z,21.07
2022-07-31T21:18:15.758Z,21.05
2022-07-31T21:20:50.617Z,20.98
2022-07-31T21:23:21.091Z,20.93
2022-07-31T21:25:47.923Z,20.98
2022-07-31T21:28:14.630Z,20.97
2022-07-31T21:30:41.367Z,20.92
2022-07-31T21:33:09.593Z,20.88
2022-07-31T21:35:37.691Z,20.89
2022-07-31T21:38:05.114Z,20.90
2022-07-31T21:40:36.018Z,20.90
2022-07-31T21:43:03.603Z,20.91
2022-07-31T21:45:50.631Z,20.92
2022-07-31T21:48:19.764Z,20.91
2022-07-31T21:50:46.578Z,21.01
2022-07-31T21:53:13.742Z,20.93
2022-07-31T21:55:40.967Z,20.93
2022-07-31T21:58:08.586Z,20.94
2022-07-31T22:00:35.873Z,20.98
2022-07-31T22:03:03.465Z,20.89
2022-07-31T22:05:49.383Z,20.88
2022-07-31T22:08:16.578Z,20.98
2022-07-31T22:10:43.594Z,20.97
2022-07-31T22:13:10.327Z,20.94
2022-07-31T22:15:58.168Z,21.01
2022-07-31T22:18:26.645Z,21.03
2022-07-31T22:20:53.780Z,21.09
2022-07-31T22:23:20.991Z,21.09
2022-07-31T22:25:49.479Z,21.09
2022-07-31T22:28:18.923Z,21.11
2022-07-31T22:30:45.807Z,21.15
2022-07-31T22:33:12.791Z,21.15
2022-07-31T22:35:40.779Z,21.19
2022-07-31T22:38:09.171Z,21.13
2022-07-31T22:40:35.753Z,21.07
2022-07-31T22:43:03.348Z,20.98
2022-07-31T22:45:30.721Z,20.91
2022-07-31T22:47:57.980Z,20.75
2022-07-31T22:50:25.257Z,20.73
2022-07-31T22:52:53.204Z,20.61
2022-07-31T22:55:20.788Z,20.54
2022-07-31T22:57:47.471Z,20.51
2022-07-31T23:00:15.382Z,20.39
2022-07-31T23:02:43.901Z,20.33
2022-07-31T23:05:10.475Z,20.30
2022-07-31T23:07:37.505Z,20.16
2022-07-31T23:10:05.925Z,20.00
2022-07-31T23:12:32.599Z,19.94
2022-07-31T23:14:59.479Z,19.80
2022-07-31T23:17:27.391Z,19.66
2022-07-31T23:19:54.976Z,19.54
2022-07-31T23:22:33.553Z,19.42
2022-07-31T23:25:08.737Z,19.26
2022-07-31T23:27:38.678Z,19.18
2022-07-31T23:30:05.610Z,19.05
2022-07-31T23:32:32.199Z,18.97
2022-07-31T23:34:59.264Z,18.89
2022-07-31T23:37:26.262Z,18.76
2022-07-31T23:39:53.095Z,18.68
2022-07-31T23:42:37.941Z,18.55
2022-07-31T23:45:11.256Z,18.48
2022-07-31T23:47:45.078Z,18.39
2022-07-31T23:50:14.045Z,18.29
2022-07-31T23:52:41.899Z,18.25
2022-07-31T23:55:08.993Z,18.25
2022-07-31T23:57:36.142Z,18.27
